Terminal Aerodrome Forecast
Issued by NWS

Home | Current Version | Previous Version | Text Only | Print | Product List | Glossary On
Versions: 1 2 3 4 5 6 7 8 9 10 11 12
237
FTUS44 KTSA 251725
TAFRVS
TAF
KRVS 251725Z 2518/2618 18019G26KT P6SM BKN250
     FM260100 18010G18KT P6SM SCT050 BKN250
      TEMPO 2603/2606 VRB30G45KT 2SM TSRA OVC010CB
     FM260700 33010G17KT 4SM -SHRA BR OVC008
     FM261400 34012G20KT P6SM VCSH OVC008=

USA.gov is the U.S. government's official web portal to all federal, state and local government web resources and services.